sensor_id;sensor_type;location;lat;lon;timestamp;pressure;altitude;pressure_sealevel;temperature;humidity
75438;BME280;64015;49.392;15.582;2023-03-13T00:02:02;95296.06;;;3.91;95.53
75438;BME280;64015;49.392;15.582;2023-03-13T00:04:28;95303.34;;;3.89;95.70
75438;BME280;64015;49.392;15.582;2023-03-13T00:06:53;95307.50;;;3.90;95.70
75438;BME280;64015;49.392;15.582;2023-03-13T00:09:19;95294.25;;;3.91;95.94
75438;BME280;64015;49.392;15.582;2023-03-13T00:11:44;95294.88;;;3.82;96.66
75438;BME280;64015;49.392;15.582;2023-03-13T00:14:11;95297.81;;;3.85;96.77
75438;BME280;64015;49.392;15.582;2023-03-13T00:16:37;95299.53;;;3.80;97.34
75438;BME280;64015;49.392;15.582;2023-03-13T00:19:05;95304.84;;;3.85;96.58
75438;BME280;64015;49.392;15.582;2023-03-13T00:21:31;95308.94;;;3.81;96.38
75438;BME280;64015;49.392;15.582;2023-03-13T00:23:58;95296.78;;;3.86;96.79
75438;BME280;64015;49.392;15.582;2023-03-13T00:26:28;95302.47;;;3.83;96.35
75438;BME280;64015;49.392;15.582;2023-03-13T00:28:55;95302.06;;;3.74;97.18
75438;BME280;64015;49.392;15.582;2023-03-13T00:31:30;95299.91;;;3.71;98.04
75438;BME280;64015;49.392;15.582;2023-03-13T00:33:58;95303.19;;;3.79;97.45
75438;BME280;64015;49.392;15.582;2023-03-13T00:36:32;95297.88;;;3.73;97.70
75438;BME280;64015;49.392;15.582;2023-03-13T00:38:59;95301.41;;;3.67;99.00
75438;BME280;64015;49.392;15.582;2023-03-13T00:41:27;95302.06;;;3.74;98.83
75438;BME280;64015;49.392;15.582;2023-03-13T00:43:53;95297.31;;;3.71;98.54
75438;BME280;64015;49.392;15.582;2023-03-13T00:46:21;95296.16;;;3.79;98.09
75438;BME280;64015;49.392;15.582;2023-03-13T00:48:48;95311.94;;;3.72;98.23
75438;BME280;64015;49.392;15.582;2023-03-13T00:51:14;95302.84;;;3.75;98.93
75438;BME280;64015;49.392;15.582;2023-03-13T00:53:41;95291.63;;;3.74;99.27
75438;BME280;64015;49.392;15.582;2023-03-13T00:56:12;95304.66;;;3.74;98.76
75438;BME280;64015;49.392;15.582;2023-03-13T00:58:39;95293.84;;;3.83;98.28
75438;BME280;64015;49.392;15.582;2023-03-13T01:01:11;95307.38;;;3.80;98.78
75438;BME280;64015;49.392;15.582;2023-03-13T01:03:39;95300.88;;;3.82;98.11
75438;BME280;64015;49.392;15.582;2023-03-13T01:06:06;95294.47;;;3.90;98.58
75438;BME280;64015;49.392;15.582;2023-03-13T01:08:32;95287.13;;;3.87;98.33
75438;BME280;64015;49.392;15.582;2023-03-13T01:11:06;95282.72;;;3.87;98.50
75438;BME280;64015;49.392;15.582;2023-03-13T01:13:33;95285.22;;;3.99;96.64
75438;BME280;64015;49.392;15.582;2023-03-13T01:18:33;95272.34;;;4.09;96.94
75438;BME280;64015;49.392;15.582;2023-03-13T01:20:59;95267.50;;;4.01;97.83
75438;BME280;64015;49.392;15.582;2023-03-13T01:23:25;95271.47;;;4.03;97.99
75438;BME280;64015;49.392;15.582;2023-03-13T01:25:53;95271.53;;;4.08;98.03
75438;BME280;64015;49.392;15.582;2023-03-13T01:28:20;95274.88;;;4.21;97.30
75438;BME280;64015;49.392;15.582;2023-03-13T01:30:45;95272.81;;;4.23;97.70
75438;BME280;64015;49.392;15.582;2023-03-13T01:33:11;95277.63;;;4.31;97.58
75438;BME280;64015;49.392;15.582;2023-03-13T01:35:37;95268.59;;;4.38;96.74
75438;BME280;64015;49.392;15.582;2023-03-13T01:38:02;95262.91;;;4.41;96.80
75438;BME280;64015;49.392;15.582;2023-03-13T01:40:28;95259.31;;;4.47;96.73
75438;BME280;64015;49.392;15.582;2023-03-13T01:42:56;95258.09;;;4.55;96.30
75438;BME280;64015;49.392;15.582;2023-03-13T01:45:55;95261.59;;;4.61;95.89
75438;BME280;64015;49.392;15.582;2023-03-13T01:48:34;95266.25;;;4.59;96.43
75438;BME280;64015;49.392;15.582;2023-03-13T01:51:06;95261.28;;;4.57;96.39
75438;BME280;64015;49.392;15.582;2023-03-13T01:53:34;95263.97;;;4.62;96.03
75438;BME280;64015;49.392;15.582;2023-03-13T01:56:04;95264.75;;;4.63;96.20
75438;BME280;64015;49.392;15.582;2023-03-13T01:58:31;95262.97;;;4.68;95.85
75438;BME280;64015;49.392;15.582;2023-03-13T02:00:57;95261.22;;;4.74;95.65
75438;BME280;64015;49.392;15.582;2023-03-13T02:03:24;95264.34;;;4.71;95.37
75438;BME280;64015;49.392;15.582;2023-03-13T02:05:50;95262.81;;;4.75;95.96
75438;BME280;64015;49.392;15.582;2023-03-13T02:08:17;95263.78;;;4.69;95.33
75438;BME280;64015;49.392;15.582;2023-03-13T02:10:50;95261.78;;;4.76;95.11
75438;BME280;64015;49.392;15.582;2023-03-13T02:13:18;95261.22;;;4.74;95.00
75438;BME280;64015;49.392;15.582;2023-03-13T02:15:45;95262.81;;;4.75;95.29
75438;BME280;64015;49.392;15.582;2023-03-13T02:18:11;95267.22;;;4.74;95.10
75438;BME280;64015;49.392;15.582;2023-03-13T02:20:38;95267.56;;;4.78;95.05
75438;BME280;64015;49.392;15.582;2023-03-13T02:28:12;95261.72;;;4.71;95.44
75438;BME280;64015;49.392;15.582;2023-03-13T02:30:42;95253.88;;;4.71;96.38
75438;BME280;64015;49.392;15.582;2023-03-13T02:33:08;95254.81;;;4.81;95.88
75438;BME280;64015;49.392;15.582;2023-03-13T02:35:34;95253.94;;;4.76;95.69
75438;BME280;64015;49.392;15.582;2023-03-13T02:38:03;95250.34;;;4.82;95.55
75438;BME280;64015;49.392;15.582;2023-03-13T02:40:32;95257.94;;;4.83;95.24
75438;BME280;64015;49.392;15.582;2023-03-13T02:43:03;95247.19;;;4.80;95.08
75438;BME280;64015;49.392;15.582;2023-03-13T02:45:29;95254.00;;;4.81;94.96
75438;BME280;64015;49.392;15.582;2023-03-13T02:51:46;95252.91;;;4.77;95.68
75438;BME280;64015;49.392;15.582;2023-03-13T02:54:16;95255.63;;;4.87;95.01
75438;BME280;64015;49.392;15.582;2023-03-13T02:56:47;95264.81;;;4.90;95.25
75438;BME280;64015;49.392;15.582;2023-03-13T02:59:14;95245.97;;;4.87;94.90
75438;BME280;64015;49.392;15.582;2023-03-13T03:01:39;95249.75;;;4.97;94.06
75438;BME280;64015;49.392;15.582;2023-03-13T03:04:06;95251.44;;;5.08;93.57
75438;BME280;64015;49.392;15.582;2023-03-13T03:06:32;95246.31;;;5.18;92.98
75438;BME280;64015;49.392;15.582;2023-03-13T03:08:58;95252.88;;;5.20;93.11
75438;BME280;64015;49.392;15.582;2023-03-13T03:11:23;95252.50;;;5.34;91.91
75438;BME280;64015;49.392;15.582;2023-03-13T03:13:49;95254.88;;;5.35;91.39
75438;BME280;64015;49.392;15.582;2023-03-13T03:16:15;95260.34;;;5.34;90.95
75438;BME280;64015;49.392;15.582;2023-03-13T03:18:43;95263.19;;;5.32;92.18
75438;BME280;64015;49.392;15.582;2023-03-13T03:21:09;95267.34;;;5.28;92.65
75438;BME280;64015;49.392;15.582;2023-03-13T03:23:35;95271.03;;;5.32;91.62
75438;BME280;64015;49.392;15.582;2023-03-13T03:26:03;95270.34;;;5.42;91.23
75438;BME280;64015;49.392;15.582;2023-03-13T03:28:29;95272.50;;;5.45;90.20
75438;BME280;64015;49.392;15.582;2023-03-13T03:30:55;95264.03;;;5.38;90.42
75438;BME280;64015;49.392;15.582;2023-03-13T03:33:25;95270.72;;;5.29;91.03
75438;BME280;64015;49.392;15.582;2023-03-13T03:35:50;95273.41;;;5.34;90.78
75438;BME280;64015;49.392;15.582;2023-03-13T03:38:16;95269.75;;;5.35;90.54
75438;BME280;64015;49.392;15.582;2023-03-13T03:40:42;95273.44;;;5.39;90.35
75438;BME280;64015;49.392;15.582;2023-03-13T03:43:07;95268.19;;;5.34;90.38
75438;BME280;64015;49.392;15.582;2023-03-13T03:45:33;95263.44;;;5.31;90.26
75438;BME280;64015;49.392;15.582;2023-03-13T03:47:59;95260.03;;;5.30;90.03
75438;BME280;64015;49.392;15.582;2023-03-13T03:50:26;95251.94;;;5.32;90.34
75438;BME280;64015;49.392;15.582;2023-03-13T03:52:58;95249.72;;;5.18;90.52
75438;BME280;64015;49.392;15.582;2023-03-13T03:55:23;95256.34;;;5.04;92.12
75438;BME280;64015;49.392;15.582;2023-03-13T03:57:49;95242.22;;;5.00;91.89
75438;BME280;64015;49.392;15.582;2023-03-13T04:00:15;95248.59;;;4.87;93.48
75438;BME280;64015;49.392;15.582;2023-03-13T04:02:41;95246.88;;;4.76;94.43
75438;BME280;64015;49.392;15.582;2023-03-13T04:05:07;95240.69;;;4.61;95.22
75438;BME280;64015;49.392;15.582;2023-03-13T04:07:33;95232.53;;;4.57;95.36
75438;BME280;64015;49.392;15.582;2023-03-13T04:09:58;95233.69;;;4.44;96.94
75438;BME280;64015;49.392;15.582;2023-03-13T04:12:24;95236.97;;;4.35;97.12
75438;BME280;64015;49.392;15.582;2023-03-13T04:14:50;95237.75;;;4.19;99.32
75438;BME280;64015;49.392;15.582;2023-03-13T04:17:16;95239.44;;;4.25;98.57
75438;BME280;64015;49.392;15.582;2023-03-13T04:19:41;95240.13;;;4.20;98.17
75438;BME280;64015;49.392;15.582;2023-03-13T04:22:07;95233.66;;;4.23;98.53
75438;BME280;64015;49.392;15.582;2023-03-13T04:24:33;95232.25;;;4.15;98.67
75438;BME280;64015;49.392;15.582;2023-03-13T04:26:58;95240.53;;;4.12;99.32
75438;BME280;64015;49.392;15.582;2023-03-13T04:29:24;95244.28;;;4.16;99.12
75438;BME280;64015;49.392;15.582;2023-03-13T04:31:50;95246.63;;;4.18;98.85
75438;BME280;64015;49.392;15.582;2023-03-13T04:34:15;95242.56;;;4.27;97.97
75438;BME280;64015;49.392;15.582;2023-03-13T04:36:41;95243.88;;;4.24;98.13
75438;BME280;64015;49.392;15.582;2023-03-13T04:39:07;95237.94;;;4.12;99.19
75438;BME280;64015;49.392;15.582;2023-03-13T04:41:33;95241.09;;;4.14;98.28
75438;BME280;64015;49.392;15.582;2023-03-13T04:43:58;95246.94;;;4.21;98.92
75438;BME280;64015;49.392;15.582;2023-03-13T04:46:24;95244.88;;;4.23;99.15
75438;BME280;64015;49.392;15.582;2023-03-13T04:48:50;95237.25;;;4.38;97.69
75438;BME280;64015;49.392;15.582;2023-03-13T04:51:15;95243.16;;;4.50;97.94
75438;BME280;64015;49.392;15.582;2023-03-13T04:53:41;95250.94;;;4.67;95.90
75438;BME280;64015;49.392;15.582;2023-03-13T04:56:07;95246.53;;;4.68;95.50
75438;BME280;64015;49.392;15.582;2023-03-13T04:58:33;95244.38;;;4.65;95.87
75438;BME280;64015;49.392;15.582;2023-03-13T05:00:59;95241.78;;;4.65;96.71
75438;BME280;64015;49.392;15.582;2023-03-13T05:03:24;95237.19;;;4.72;95.73
75438;BME280;64015;49.392;15.582;2023-03-13T05:05:50;95226.97;;;4.70;96.26
75438;BME280;64015;49.392;15.582;2023-03-13T05:08:16;95232.00;;;4.77;96.14
75438;BME280;64015;49.392;15.582;2023-03-13T05:10:42;95226.78;;;4.77;96.21
75438;BME280;64015;49.392;15.582;2023-03-13T05:13:07;95222.34;;;4.77;96.38
75438;BME280;64015;49.392;15.582;2023-03-13T05:15:33;95224.81;;;4.67;96.48
75438;BME280;64015;49.392;15.582;2023-03-13T05:17:59;95224.22;;;4.60;98.00
75438;BME280;64015;49.392;15.582;2023-03-13T05:20:25;95228.19;;;4.63;97.43
75438;BME280;64015;49.392;15.582;2023-03-13T05:22:50;95233.09;;;4.59;97.81
75438;BME280;64015;49.392;15.582;2023-03-13T05:25:16;95229.25;;;4.67;97.48
75438;BME280;64015;49.392;15.582;2023-03-13T05:27:42;95233.22;;;4.69;97.03
75438;BME280;64015;49.392;15.582;2023-03-13T05:30:08;95230.84;;;4.68;97.16
75438;BME280;64015;49.392;15.582;2023-03-13T05:32:34;95233.81;;;4.76;95.96
75438;BME280;64015;49.392;15.582;2023-03-13T05:34:59;95230.19;;;4.77;95.54
75438;BME280;64015;49.392;15.582;2023-03-13T05:37:25;95226.72;;;4.72;96.55
75438;BME280;64015;49.392;15.582;2023-03-13T05:39:51;95230.09;;;4.94;94.56
75438;BME280;64015;49.392;15.582;2023-03-13T05:42:16;95228.09;;;5.01;94.14
75438;BME280;64015;49.392;15.582;2023-03-13T05:44:42;95224.09;;;4.94;94.83
75438;BME280;64015;49.392;15.582;2023-03-13T05:47:08;95221.78;;;4.97;94.33
75438;BME280;64015;49.392;15.582;2023-03-13T05:49:34;95206.16;;;5.02;94.01
75438;BME280;64015;49.392;15.582;2023-03-13T05:52:00;95205.00;;;4.93;94.94
75438;BME280;64015;49.392;15.582;2023-03-13T05:54:25;95191.22;;;4.98;95.29
75438;BME280;64015;49.392;15.582;2023-03-13T05:56:51;95185.91;;;4.93;94.28
75438;BME280;64015;49.392;15.582;2023-03-13T05:59:17;95204.88;;;4.83;96.26
75438;BME280;64015;49.392;15.582;2023-03-13T06:01:43;95200.16;;;4.80;96.31
75438;BME280;64015;49.392;15.582;2023-03-13T06:04:08;95194.44;;;4.83;95.79
75438;BME280;64015;49.392;15.582;2023-03-13T06:06:34;95194.41;;;4.78;96.61
75438;BME280;64015;49.392;15.582;2023-03-13T06:09:00;95205.44;;;4.85;95.58
75438;BME280;64015;49.392;15.582;2023-03-13T06:11:26;95199.13;;;4.81;96.89
75438;BME280;64015;49.392;15.582;2023-03-13T06:13:51;95206.22;;;4.85;96.87
75438;BME280;64015;49.392;15.582;2023-03-13T06:16:17;95204.09;;;4.82;97.08
75438;BME280;64015;49.392;15.582;2023-03-13T06:18:43;95210.75;;;4.90;96.89
75438;BME280;64015;49.392;15.582;2023-03-13T06:21:10;95202.47;;;4.98;96.37
75438;BME280;64015;49.392;15.582;2023-03-13T06:23:36;95197.81;;;5.05;95.76
75438;BME280;64015;49.392;15.582;2023-03-13T06:26:02;95205.00;;;5.20;94.69
75438;BME280;64015;49.392;15.582;2023-03-13T06:28:28;95177.69;;;5.33;94.03
75438;BME280;64015;49.392;15.582;2023-03-13T06:30:54;95186.69;;;5.47;92.69
75438;BME280;64015;49.392;15.582;2023-03-13T06:33:20;95181.22;;;5.48;93.41
75438;BME280;64015;49.392;15.582;2023-03-13T06:35:46;95186.50;;;5.53;93.04
75438;BME280;64015;49.392;15.582;2023-03-13T06:38:12;95175.25;;;5.53;92.78
75438;BME280;64015;49.392;15.582;2023-03-13T06:40:37;95180.44;;;5.48;93.73
75438;BME280;64015;49.392;15.582;2023-03-13T06:43:03;95169.44;;;5.46;93.08
75438;BME280;64015;49.392;15.582;2023-03-13T06:45:29;95180.69;;;5.46;93.39
75438;BME280;64015;49.392;15.582;2023-03-13T06:47:55;95177.06;;;5.52;92.91
75438;BME280;64015;49.392;15.582;2023-03-13T06:50:20;95173.44;;;5.58;93.01
75438;BME280;64015;49.392;15.582;2023-03-13T06:52:46;95167.75;;;5.67;92.62
75438;BME280;64015;49.392;15.582;2023-03-13T06:55:13;95161.50;;;5.68;92.99
75438;BME280;64015;49.392;15.582;2023-03-13T06:57:39;95163.38;;;5.77;91.85
75438;BME280;64015;49.392;15.582;2023-03-13T07:00:05;95165.03;;;5.83;92.28
75438;BME280;64015;49.392;15.582;2023-03-13T07:02:32;95170.06;;;5.90;91.78
75438;BME280;64015;49.392;15.582;2023-03-13T07:04:57;95162.53;;;5.98;90.58
75438;BME280;64015;49.392;15.582;2023-03-13T07:07:23;95146.63;;;6.10;89.56
75438;BME280;64015;49.392;15.582;2023-03-13T07:09:49;95164.16;;;6.10;89.64
75438;BME280;64015;49.392;15.582;2023-03-13T07:12:15;95162.66;;;6.19;89.27
75438;BME280;64015;49.392;15.582;2023-03-13T07:14:41;95173.13;;;6.19;88.72
75438;BME280;64015;49.392;15.582;2023-03-13T07:17:07;95168.44;;;6.31;88.21
75438;BME280;64015;49.392;15.582;2023-03-13T07:19:33;95174.75;;;6.35;87.56
75438;BME280;64015;49.392;15.582;2023-03-13T07:21:58;95179.28;;;6.50;87.63
75438;BME280;64015;49.392;15.582;2023-03-13T07:24:25;95173.81;;;6.56;86.87
75438;BME280;64015;49.392;15.582;2023-03-13T07:26:50;95171.75;;;6.68;85.50
75438;BME280;64015;49.392;15.582;2023-03-13T07:29:16;95170.22;;;6.78;84.66
75438;BME280;64015;49.392;15.582;2023-03-13T07:31:42;95169.50;;;6.92;84.63
75438;BME280;64015;49.392;15.582;2023-03-13T07:34:07;95155.59;;;6.92;85.45
75438;BME280;64015;49.392;15.582;2023-03-13T07:36:33;95146.66;;;6.83;84.94
75438;BME280;64015;49.392;15.582;2023-03-13T07:39:00;95138.75;;;6.72;85.19
75438;BME280;64015;49.392;15.582;2023-03-13T07:41:28;95151.03;;;6.62;85.37
75438;BME280;64015;49.392;15.582;2023-03-13T07:43:54;95168.59;;;6.61;85.85
75438;BME280;64015;49.392;15.582;2023-03-13T07:46:20;95152.13;;;6.66;85.74
75438;BME280;64015;49.392;15.582;2023-03-13T07:48:46;95159.69;;;6.67;85.44
75438;BME280;64015;49.392;15.582;2023-03-13T07:51:15;95165.72;;;6.68;85.92
75438;BME280;64015;49.392;15.582;2023-03-13T07:53:42;95160.78;;;6.77;84.92
75438;BME280;64015;49.392;15.582;2023-03-13T07:56:13;95154.00;;;6.91;84.13
75438;BME280;64015;49.392;15.582;2023-03-13T07:58:42;95153.53;;;7.04;84.20
75438;BME280;64015;49.392;15.582;2023-03-13T08:01:15;95144.34;;;7.17;83.97
75438;BME280;64015;49.392;15.582;2023-03-13T08:03:41;95129.94;;;7.29;84.46
75438;BME280;64015;49.392;15.582;2023-03-13T08:06:14;95134.66;;;7.42;83.58
75438;BME280;64015;49.392;15.582;2023-03-13T08:08:42;95118.13;;;7.67;81.61
75438;BME280;64015;49.392;15.582;2023-03-13T08:11:15;95117.34;;;7.72;81.63
75438;BME280;64015;49.392;15.582;2023-03-13T08:13:42;95117.84;;;7.74;81.68
75438;BME280;64015;49.392;15.582;2023-03-13T08:16:13;95131.50;;;7.81;80.91
75438;BME280;64015;49.392;15.582;2023-03-13T08:18:41;95128.31;;;7.89;80.96
75438;BME280;64015;49.392;15.582;2023-03-13T08:21:09;95122.56;;;7.82;79.94
75438;BME280;64015;49.392;15.582;2023-03-13T08:23:37;95135.19;;;7.85;77.45
75438;BME280;64015;49.392;15.582;2023-03-13T08:26:08;95126.25;;;7.86;77.32
75438;BME280;64015;49.392;15.582;2023-03-13T08:28:36;95129.91;;;7.90;78.02
75438;BME280;64015;49.392;15.582;2023-03-13T08:31:13;95130.69;;;7.91;77.49
75438;BME280;64015;49.392;15.582;2023-03-13T08:33:41;95133.03;;;8.02;77.65
75438;BME280;64015;49.392;15.582;2023-03-13T08:36:14;95125.16;;;7.97;77.48
75438;BME280;64015;49.392;15.582;2023-03-13T08:38:42;95116.53;;;7.86;78.88
75438;BME280;64015;49.392;15.582;2023-03-13T08:41:10;95097.63;;;7.84;79.15
75438;BME280;64015;49.392;15.582;2023-03-13T08:43:36;95101.25;;;7.99;77.94
75438;BME280;64015;49.392;15.582;2023-03-13T08:46:02;95105.00;;;7.88;78.47
75438;BME280;64015;49.392;15.582;2023-03-13T08:48:28;95107.34;;;7.84;78.51
75438;BME280;64015;49.392;15.582;2023-03-13T08:51:10;95105.47;;;8.05;78.20
75438;BME280;64015;49.392;15.582;2023-03-13T08:53:38;95104.69;;;8.04;76.82
75438;BME280;64015;49.392;15.582;2023-03-13T08:56:05;95103.06;;;8.08;77.83
75438;BME280;64015;49.392;15.582;2023-03-13T08:58:31;95093.88;;;8.11;77.84
75438;BME280;64015;49.392;15.582;2023-03-13T09:01:03;95102.28;;;8.13;76.79
75438;BME280;64015;49.392;15.582;2023-03-13T09:03:30;95093.38;;;8.04;77.14
75438;BME280;64015;49.392;15.582;2023-03-13T09:05:57;95089.41;;;8.11;77.60
75438;BME280;64015;49.392;15.582;2023-03-13T09:08:23;95067.88;;;8.14;77.56
75438;BME280;64015;49.392;15.582;2023-03-13T09:11:00;95065.72;;;8.27;77.93
75438;BME280;64015;49.392;15.582;2023-03-13T09:13:28;95063.59;;;8.29;78.49
75438;BME280;64015;49.392;15.582;2023-03-13T09:16:05;95063.16;;;8.11;78.60
75438;BME280;64015;49.392;15.582;2023-03-13T09:18:39;95063.44;;;8.05;79.20
75438;BME280;64015;49.392;15.582;2023-03-13T09:21:07;95047.94;;;8.03;79.46
75438;BME280;64015;49.392;15.582;2023-03-13T09:23:34;95049.25;;;8.06;80.53
75438;BME280;64015;49.392;15.582;2023-03-13T09:26:00;95040.03;;;8.13;80.56
75438;BME280;64015;49.392;15.582;2023-03-13T09:28:26;95036.06;;;8.16;79.82
75438;BME280;64015;49.392;15.582;2023-03-13T09:30:53;95038.16;;;8.19;79.20
75438;BME280;64015;49.392;15.582;2023-03-13T09:33:20;95027.34;;;8.31;79.68
75438;BME280;64015;49.392;15.582;2023-03-13T09:35:48;95028.94;;;8.32;77.38
75438;BME280;64015;49.392;15.582;2023-03-13T09:38:21;95035.75;;;8.38;77.88
75438;BME280;64015;49.392;15.582;2023-03-13T09:40:49;95035.22;;;8.41;77.29
75438;BME280;64015;49.392;15.582;2023-03-13T09:46:02;95026.84;;;8.23;78.93
75438;BME280;64015;49.392;15.582;2023-03-13T09:48:33;95028.44;;;8.24;80.24
75438;BME280;64015;49.392;15.582;2023-03-13T09:51:12;95024.22;;;8.23;81.26
75438;BME280;64015;49.392;15.582;2023-03-13T09:54:01;95021.09;;;8.21;80.87
75438;BME280;64015;49.392;15.582;2023-03-13T09:56:36;95024.75;;;8.20;81.28
75438;BME280;64015;49.392;15.582;2023-03-13T10:01:51;95008.94;;;8.31;81.60
75438;BME280;64015;49.392;15.582;2023-03-13T10:04:41;95001.56;;;8.43;81.69
75438;BME280;64015;49.392;15.582;2023-03-13T10:07:11;94999.31;;;8.65;80.91
75438;BME280;64015;49.392;15.582;2023-03-13T10:09:37;94994.50;;;8.77;79.58
75438;BME280;64015;49.392;15.582;2023-03-13T10:12:20;95002.59;;;8.81;79.57
75438;BME280;64015;49.392;15.582;2023-03-13T10:17:42;95010.69;;;8.94;78.90
75438;BME280;64015;49.392;15.582;2023-03-13T10:20:25;94993.75;;;9.06;79.18
75438;BME280;64015;49.392;15.582;2023-03-13T10:23:20;94985.28;;;9.09;77.52
75438;BME280;64015;49.392;15.582;2023-03-13T10:25:46;94975.47;;;9.19;78.26
75438;BME280;64015;49.392;15.582;2023-03-13T10:28:17;94982.56;;;9.19;76.78
75438;BME280;64015;49.392;15.582;2023-03-13T10:30:57;94969.16;;;9.20;76.16
75438;BME280;64015;49.392;15.582;2023-03-13T10:33:28;94971.31;;;9.13;75.75
75438;BME280;64015;49.392;15.582;2023-03-13T10:36:10;94949.25;;;9.38;75.26
75438;BME280;64015;49.392;15.582;2023-03-13T10:38:52;94959.22;;;9.41;74.52
75438;BME280;64015;49.392;15.582;2023-03-13T10:41:35;94957.66;;;9.40;74.13
75438;BME280;64015;49.392;15.582;2023-03-13T10:44:06;94954.19;;;9.45;73.28
75438;BME280;64015;49.392;15.582;2023-03-13T10:46:34;94969.41;;;9.48;73.59
75438;BME280;64015;49.392;15.582;2023-03-13T10:49:14;94971.44;;;9.56;73.10
75438;BME280;64015;49.392;15.582;2023-03-13T10:51:45;94976.69;;;9.56;73.05
75438;BME280;64015;49.392;15.582;2023-03-13T10:54:30;94972.47;;;9.55;71.82
75438;BME280;64015;49.392;15.582;2023-03-13T10:59:48;94970.63;;;9.55;71.74
75438;BME280;64015;49.392;15.582;2023-03-13T11:04:57;94960.13;;;9.79;71.49
75438;BME280;64015;49.392;15.582;2023-03-13T11:10:00;94950.44;;;10.17;68.69
75438;BME280;64015;49.392;15.582;2023-03-13T11:12:27;94938.56;;;10.38;67.71
75438;BME280;64015;49.392;15.582;2023-03-13T11:15:00;94931.00;;;10.51;66.34
75438;BME280;64015;49.392;15.582;2023-03-13T11:17:31;94935.34;;;10.41;66.68
75438;BME280;64015;49.392;15.582;2023-03-13T11:22:48;94936.41;;;10.40;66.90
75438;BME280;64015;49.392;15.582;2023-03-13T11:25:38;94936.38;;;10.78;66.76
75438;BME280;64015;49.392;15.582;2023-03-13T11:28:23;94928.63;;;10.68;66.53
75438;BME280;64015;49.392;15.582;2023-03-13T11:34:22;94917.19;;;10.91;65.95
75438;BME280;64015;49.392;15.582;2023-03-13T11:37:02;94918.94;;;10.96;66.08
75438;BME280;64015;49.392;15.582;2023-03-13T11:45:52;94902.44;;;10.90;66.82
75438;BME280;64015;49.392;15.582;2023-03-13T11:56:59;94896.13;;;11.18;65.06
75438;BME280;64015;49.392;15.582;2023-03-13T11:59:44;94890.88;;;11.46;65.18
75438;BME280;64015;49.392;15.582;2023-03-13T12:02:24;94886.47;;;11.55;64.53
75438;BME280;64015;49.392;15.582;2023-03-13T12:05:02;94897.97;;;11.59;65.13
75438;BME280;64015;49.392;15.582;2023-03-13T12:07:34;94878.63;;;11.50;64.90
75438;BME280;64015;49.392;15.582;2023-03-13T12:12:43;94878.53;;;11.82;65.32
75438;BME280;64015;49.392;15.582;2023-03-13T12:18:08;94859.25;;;12.31;63.34
75438;BME280;64015;49.392;15.582;2023-03-13T12:20:48;94870.91;;;12.17;63.50
75438;BME280;64015;49.392;15.582;2023-03-13T12:23:20;94877.97;;;12.21;65.07
75438;BME280;64015;49.392;15.582;2023-03-13T12:25:52;94873.19;;;12.10;64.29
75438;BME280;64015;49.392;15.582;2023-03-13T12:33:42;94851.63;;;12.61;63.44
75438;BME280;64015;49.392;15.582;2023-03-13T12:36:16;94842.53;;;12.22;63.62
75438;BME280;64015;49.392;15.582;2023-03-13T12:41:32;94837.03;;;12.19;64.21
75438;BME280;64015;49.392;15.582;2023-03-13T12:44:00;94838.97;;;12.05;65.51
75438;BME280;64015;49.392;15.582;2023-03-13T12:46:45;94842.91;;;12.16;65.57
75438;BME280;64015;49.392;15.582;2023-03-13T12:57:59;94826.28;;;12.15;65.45
75438;BME280;64015;49.392;15.582;2023-03-13T13:00:22;94824.78;;;12.23;65.63
75438;BME280;64015;49.392;15.582;2023-03-13T13:06:04;94804.34;;;12.59;64.08
75438;BME280;64015;49.392;15.582;2023-03-13T13:08:40;94817.19;;;12.52;63.74
75438;BME280;64015;49.392;15.582;2023-03-13T13:16:43;94786.59;;;12.60;63.38
75438;BME280;64015;49.392;15.582;2023-03-13T13:29:59;94793.38;;;12.75;63.98
75438;BME280;64015;49.392;15.582;2023-03-13T13:32:37;94808.53;;;12.60;63.52
75438;BME280;64015;49.392;15.582;2023-03-13T13:37:48;94802.31;;;12.87;63.68
75438;BME280;64015;49.392;15.582;2023-03-13T13:42:53;94812.97;;;12.74;64.00
75438;BME280;64015;49.392;15.582;2023-03-13T13:45:36;94793.97;;;12.71;64.02
75438;BME280;64015;49.392;15.582;2023-03-13T13:48:26;94809.72;;;12.77;64.62
75438;BME280;64015;49.392;15.582;2023-03-13T13:53:46;94813.16;;;12.77;63.96
75438;BME280;64015;49.392;15.582;2023-03-13T14:01:25;94809.59;;;12.82;64.28
75438;BME280;64015;49.392;15.582;2023-03-13T14:04:03;94800.38;;;12.79;64.17
75438;BME280;64015;49.392;15.582;2023-03-13T14:06:33;94812.22;;;12.82;63.93
75438;BME280;64015;49.392;15.582;2023-03-13T14:09:14;94798.66;;;12.75;64.66
75438;BME280;64015;49.392;15.582;2023-03-13T14:11:44;94802.13;;;12.84;64.16
75438;BME280;64015;49.392;15.582;2023-03-13T14:14:19;94796.84;;;12.84;64.23
75438;BME280;64015;49.392;15.582;2023-03-13T14:16:53;94799.94;;;12.77;64.25
75438;BME280;64015;49.392;15.582;2023-03-13T14:19:28;94799.19;;;12.85;64.29
75438;BME280;64015;49.392;15.582;2023-03-13T14:21:59;94791.34;;;12.80;64.33
75438;BME280;64015;49.392;15.582;2023-03-13T14:24:26;94792.22;;;12.98;64.10
75438;BME280;64015;49.392;15.582;2023-03-13T14:26:51;94791.00;;;13.04;63.59
75438;BME280;64015;49.392;15.582;2023-03-13T14:29:18;94788.16;;;12.92;63.91
75438;BME280;64015;49.392;15.582;2023-03-13T14:31:57;94786.84;;;12.81;64.03
75438;BME280;64015;49.392;15.582;2023-03-13T14:34:26;94777.03;;;12.81;64.40
75438;BME280;64015;49.392;15.582;2023-03-13T14:36:57;94764.94;;;12.89;64.18
75438;BME280;64015;49.392;15.582;2023-03-13T14:42:04;94766.19;;;12.91;64.56
75438;BME280;64015;49.392;15.582;2023-03-13T14:44:32;94753.13;;;12.95;63.46
75438;BME280;64015;49.392;15.582;2023-03-13T14:47:03;94752.97;;;12.91;63.63
75438;BME280;64015;49.392;15.582;2023-03-13T14:49:29;94750.03;;;13.01;64.08
75438;BME280;64015;49.392;15.582;2023-03-13T14:52:15;94763.91;;;13.07;63.00
75438;BME280;64015;49.392;15.582;2023-03-13T14:54:55;94768.13;;;13.08;62.77